sensor_id;sensor_type;location;lat;lon;timestamp;P1;durP1;ratioP1;P2;durP2;ratioP2
10711;SDS011;5407;51.234;6.804;2024-03-22T00:02:12;30.37;;;22.93;;
10711;SDS011;5407;51.234;6.804;2024-03-22T00:05:03;31.70;;;23.57;;
10711;SDS011;5407;51.234;6.804;2024-03-22T00:07:40;32.23;;;23.07;;
10711;SDS011;5407;51.234;6.804;2024-03-22T00:10:20;33.00;;;23.50;;
10711;SDS011;5407;51.234;6.804;2024-03-22T00:13:13;34.10;;;23.97;;
10711;SDS011;5407;51.234;6.804;2024-03-22T00:15:45;33.40;;;24.03;;
10711;SDS011;5407;51.234;6.804;2024-03-22T00:18:20;34.37;;;23.87;;
10711;SDS011;5407;51.234;6.804;2024-03-22T00:20:51;33.30;;;23.83;;
10711;SDS011;5407;51.234;6.804;2024-03-22T00:23:35;34.33;;;23.30;;
10711;SDS011;5407;51.234;6.804;2024-03-22T00:26:05;34.43;;;24.13;;
10711;SDS011;5407;51.234;6.804;2024-03-22T00:28:37;38.43;;;23.63;;
10711;SDS011;5407;51.234;6.804;2024-03-22T00:31:24;34.40;;;24.17;;
10711;SDS011;5407;51.234;6.804;2024-03-22T00:34:16;37.17;;;25.30;;
10711;SDS011;5407;51.234;6.804;2024-03-22T00:37:10;35.57;;;24.17;;
10711;SDS011;5407;51.234;6.804;2024-03-22T00:39:37;33.77;;;23.30;;
10711;SDS011;5407;51.234;6.804;2024-03-22T00:42:04;33.20;;;23.77;;
10711;SDS011;5407;51.234;6.804;2024-03-22T00:44:31;33.63;;;23.30;;
10711;SDS011;5407;51.234;6.804;2024-03-22T00:46:58;35.37;;;22.23;;
10711;SDS011;5407;51.234;6.804;2024-03-22T00:49:24;35.93;;;23.10;;
10711;SDS011;5407;51.234;6.804;2024-03-22T00:51:51;32.73;;;22.53;;
10711;SDS011;5407;51.234;6.804;2024-03-22T00:54:20;29.27;;;21.50;;
10711;SDS011;5407;51.234;6.804;2024-03-22T00:56:46;32.73;;;22.67;;
10711;SDS011;5407;51.234;6.804;2024-03-22T00:59:13;30.47;;;22.27;;
10711;SDS011;5407;51.234;6.804;2024-03-22T01:01:40;34.10;;;23.23;;
10711;SDS011;5407;51.234;6.804;2024-03-22T01:04:07;33.13;;;22.97;;
10711;SDS011;5407;51.234;6.804;2024-03-22T01:06:34;32.47;;;22.53;;
10711;SDS011;5407;51.234;6.804;2024-03-22T01:09:01;31.87;;;23.40;;
10711;SDS011;5407;51.234;6.804;2024-03-22T01:11:28;35.77;;;22.27;;
10711;SDS011;5407;51.234;6.804;2024-03-22T01:13:55;35.37;;;23.00;;
10711;SDS011;5407;51.234;6.804;2024-03-22T01:16:22;32.40;;;22.13;;
10711;SDS011;5407;51.234;6.804;2024-03-22T01:18:50;36.13;;;22.83;;
10711;SDS011;5407;51.234;6.804;2024-03-22T01:21:16;30.80;;;22.00;;
10711;SDS011;5407;51.234;6.804;2024-03-22T01:23:43;34.00;;;22.30;;
10711;SDS011;5407;51.234;6.804;2024-03-22T01:26:09;32.57;;;21.30;;
10711;SDS011;5407;51.234;6.804;2024-03-22T01:28:35;32.90;;;21.80;;
10711;SDS011;5407;51.234;6.804;2024-03-22T01:31:01;34.43;;;22.47;;
10711;SDS011;5407;51.234;6.804;2024-03-22T01:33:28;33.00;;;21.17;;
10711;SDS011;5407;51.234;6.804;2024-03-22T01:35:55;31.53;;;21.67;;
10711;SDS011;5407;51.234;6.804;2024-03-22T01:38:22;33.73;;;22.03;;
10711;SDS011;5407;51.234;6.804;2024-03-22T01:40:48;33.07;;;21.13;;
10711;SDS011;5407;51.234;6.804;2024-03-22T01:43:15;30.10;;;21.23;;
10711;SDS011;5407;51.234;6.804;2024-03-22T01:45:41;30.07;;;21.53;;
10711;SDS011;5407;51.234;6.804;2024-03-22T01:48:08;30.57;;;21.53;;
10711;SDS011;5407;51.234;6.804;2024-03-22T01:50:34;29.47;;;19.93;;
10711;SDS011;5407;51.234;6.804;2024-03-22T01:53:03;29.70;;;19.93;;
10711;SDS011;5407;51.234;6.804;2024-03-22T01:55:30;30.77;;;20.67;;
10711;SDS011;5407;51.234;6.804;2024-03-22T01:57:58;33.53;;;20.67;;
10711;SDS011;5407;51.234;6.804;2024-03-22T02:00:24;29.60;;;19.63;;
10711;SDS011;5407;51.234;6.804;2024-03-22T02:02:51;29.30;;;19.80;;
10711;SDS011;5407;51.234;6.804;2024-03-22T02:05:18;28.97;;;18.83;;
10711;SDS011;5407;51.234;6.804;2024-03-22T02:07:47;29.83;;;19.23;;
10711;SDS011;5407;51.234;6.804;2024-03-22T02:10:15;29.27;;;19.80;;
10711;SDS011;5407;51.234;6.804;2024-03-22T02:12:44;27.03;;;19.00;;
10711;SDS011;5407;51.234;6.804;2024-03-22T02:15:14;25.37;;;18.77;;
10711;SDS011;5407;51.234;6.804;2024-03-22T02:17:44;27.47;;;19.73;;
10711;SDS011;5407;51.234;6.804;2024-03-22T02:20:10;28.00;;;19.23;;
10711;SDS011;5407;51.234;6.804;2024-03-22T02:22:38;26.40;;;18.60;;
10711;SDS011;5407;51.234;6.804;2024-03-22T02:25:05;26.00;;;18.87;;
10711;SDS011;5407;51.234;6.804;2024-03-22T02:27:33;28.50;;;18.60;;
10711;SDS011;5407;51.234;6.804;2024-03-22T02:29:59;24.43;;;17.63;;
10711;SDS011;5407;51.234;6.804;2024-03-22T02:35:32;29.23;;;19.57;;
10711;SDS011;5407;51.234;6.804;2024-03-22T02:38:11;28.63;;;18.13;;
10711;SDS011;5407;51.234;6.804;2024-03-22T02:40:39;23.47;;;17.67;;
10711;SDS011;5407;51.234;6.804;2024-03-22T02:43:07;28.60;;;19.23;;
10711;SDS011;5407;51.234;6.804;2024-03-22T02:45:33;25.87;;;17.87;;
10711;SDS011;5407;51.234;6.804;2024-03-22T02:48:00;24.07;;;17.43;;
10711;SDS011;5407;51.234;6.804;2024-03-22T02:50:27;23.77;;;17.30;;
10711;SDS011;5407;51.234;6.804;2024-03-22T02:53:03;27.30;;;18.77;;
10711;SDS011;5407;51.234;6.804;2024-03-22T02:55:35;24.53;;;17.27;;
10711;SDS011;5407;51.234;6.804;2024-03-22T02:58:09;24.07;;;17.97;;
10711;SDS011;5407;51.234;6.804;2024-03-22T03:00:35;25.53;;;17.10;;
10711;SDS011;5407;51.234;6.804;2024-03-22T03:03:04;24.77;;;17.23;;
10711;SDS011;5407;51.234;6.804;2024-03-22T03:05:32;23.60;;;16.87;;
10711;SDS011;5407;51.234;6.804;2024-03-22T03:08:00;23.43;;;17.30;;
10711;SDS011;5407;51.234;6.804;2024-03-22T03:10:28;23.93;;;17.30;;
10711;SDS011;5407;51.234;6.804;2024-03-22T03:12:56;24.77;;;17.03;;
10711;SDS011;5407;51.234;6.804;2024-03-22T03:15:23;23.17;;;16.97;;
10711;SDS011;5407;51.234;6.804;2024-03-22T03:17:50;25.97;;;16.30;;
10711;SDS011;5407;51.234;6.804;2024-03-22T03:20:18;24.57;;;17.67;;
10711;SDS011;5407;51.234;6.804;2024-03-22T03:23:01;27.57;;;16.67;;
10711;SDS011;5407;51.234;6.804;2024-03-22T03:25:34;23.70;;;17.20;;
10711;SDS011;5407;51.234;6.804;2024-03-22T03:28:01;22.30;;;16.47;;
10711;SDS011;5407;51.234;6.804;2024-03-22T03:30:40;23.23;;;16.13;;
10711;SDS011;5407;51.234;6.804;2024-03-22T03:33:07;24.33;;;16.90;;
10711;SDS011;5407;51.234;6.804;2024-03-22T03:35:38;22.47;;;15.30;;
10711;SDS011;5407;51.234;6.804;2024-03-22T03:38:09;21.93;;;15.07;;
10711;SDS011;5407;51.234;6.804;2024-03-22T03:40:37;21.50;;;15.70;;
10711;SDS011;5407;51.234;6.804;2024-03-22T03:43:07;23.23;;;16.10;;
10711;SDS011;5407;51.234;6.804;2024-03-22T03:45:36;22.07;;;15.90;;
10711;SDS011;5407;51.234;6.804;2024-03-22T03:48:04;20.77;;;15.27;;
10711;SDS011;5407;51.234;6.804;2024-03-22T03:50:34;23.00;;;15.20;;
10711;SDS011;5407;51.234;6.804;2024-03-22T03:53:00;21.87;;;15.57;;
10711;SDS011;5407;51.234;6.804;2024-03-22T03:55:27;21.77;;;15.50;;
10711;SDS011;5407;51.234;6.804;2024-03-22T03:57:54;25.37;;;15.87;;
10711;SDS011;5407;51.234;6.804;2024-03-22T04:00:26;20.57;;;15.30;;
10711;SDS011;5407;51.234;6.804;2024-03-22T04:02:52;21.03;;;15.07;;
10711;SDS011;5407;51.234;6.804;2024-03-22T04:05:20;21.40;;;15.13;;
10711;SDS011;5407;51.234;6.804;2024-03-22T04:07:48;22.10;;;16.00;;
10711;SDS011;5407;51.234;6.804;2024-03-22T04:10:18;19.07;;;14.20;;
10711;SDS011;5407;51.234;6.804;2024-03-22T04:12:44;19.17;;;15.17;;
10711;SDS011;5407;51.234;6.804;2024-03-22T04:15:12;21.50;;;15.03;;
10711;SDS011;5407;51.234;6.804;2024-03-22T04:17:46;24.10;;;15.60;;
10711;SDS011;5407;51.234;6.804;2024-03-22T04:20:13;20.67;;;15.07;;
10711;SDS011;5407;51.234;6.804;2024-03-22T04:22:42;24.67;;;15.30;;
10711;SDS011;5407;51.234;6.804;2024-03-22T04:25:22;19.93;;;15.00;;
10711;SDS011;5407;51.234;6.804;2024-03-22T04:32:16;19.23;;;14.30;;
10711;SDS011;5407;51.234;6.804;2024-03-22T04:34:44;19.23;;;14.97;;
10711;SDS011;5407;51.234;6.804;2024-03-22T04:37:14;19.70;;;14.80;;
10711;SDS011;5407;51.234;6.804;2024-03-22T04:39:46;23.50;;;14.97;;
10711;SDS011;5407;51.234;6.804;2024-03-22T04:42:35;22.90;;;14.97;;
10711;SDS011;5407;51.234;6.804;2024-03-22T04:48:24;24.53;;;14.17;;
10711;SDS011;5407;51.234;6.804;2024-03-22T04:51:13;18.67;;;14.30;;
10711;SDS011;5407;51.234;6.804;2024-03-22T04:53:41;18.50;;;14.40;;
10711;SDS011;5407;51.234;6.804;2024-03-22T04:56:08;17.93;;;15.07;;
10711;SDS011;5407;51.234;6.804;2024-03-22T04:58:35;20.50;;;14.47;;
10711;SDS011;5407;51.234;6.804;2024-03-22T05:01:01;22.10;;;14.53;;
10711;SDS011;5407;51.234;6.804;2024-03-22T05:03:28;19.73;;;13.93;;
10711;SDS011;5407;51.234;6.804;2024-03-22T05:05:55;21.13;;;14.83;;
10711;SDS011;5407;51.234;6.804;2024-03-22T05:08:22;17.67;;;14.10;;
10711;SDS011;5407;51.234;6.804;2024-03-22T05:10:58;19.93;;;13.87;;
10711;SDS011;5407;51.234;6.804;2024-03-22T05:14:10;18.60;;;13.90;;
10711;SDS011;5407;51.234;6.804;2024-03-22T05:16:37;18.00;;;14.07;;
10711;SDS011;5407;51.234;6.804;2024-03-22T05:19:03;20.27;;;14.37;;
10711;SDS011;5407;51.234;6.804;2024-03-22T05:21:30;17.17;;;14.07;;
10711;SDS011;5407;51.234;6.804;2024-03-22T05:23:56;21.00;;;13.97;;
10711;SDS011;5407;51.234;6.804;2024-03-22T05:26:24;20.77;;;14.07;;
10711;SDS011;5407;51.234;6.804;2024-03-22T05:28:50;19.83;;;14.17;;
10711;SDS011;5407;51.234;6.804;2024-03-22T05:31:19;17.63;;;13.80;;
10711;SDS011;5407;51.234;6.804;2024-03-22T05:33:45;17.83;;;13.83;;
10711;SDS011;5407;51.234;6.804;2024-03-22T05:36:12;23.07;;;13.40;;
10711;SDS011;5407;51.234;6.804;2024-03-22T05:38:38;17.03;;;13.30;;
10711;SDS011;5407;51.234;6.804;2024-03-22T05:41:05;19.20;;;13.37;;
10711;SDS011;5407;51.234;6.804;2024-03-22T05:43:31;17.73;;;12.83;;
10711;SDS011;5407;51.234;6.804;2024-03-22T05:45:58;20.23;;;12.80;;
10711;SDS011;5407;51.234;6.804;2024-03-22T05:48:25;19.40;;;13.27;;
10711;SDS011;5407;51.234;6.804;2024-03-22T05:50:53;20.13;;;13.43;;
10711;SDS011;5407;51.234;6.804;2024-03-22T05:53:19;18.00;;;13.17;;
10711;SDS011;5407;51.234;6.804;2024-03-22T05:55:45;18.77;;;13.07;;
10711;SDS011;5407;51.234;6.804;2024-03-22T05:58:11;19.80;;;13.20;;
10711;SDS011;5407;51.234;6.804;2024-03-22T06:00:38;17.60;;;13.07;;
10711;SDS011;5407;51.234;6.804;2024-03-22T06:03:04;16.83;;;13.60;;
10711;SDS011;5407;51.234;6.804;2024-03-22T06:05:34;20.17;;;13.00;;
10711;SDS011;5407;51.234;6.804;2024-03-22T06:08:00;17.27;;;12.60;;
10711;SDS011;5407;51.234;6.804;2024-03-22T06:10:28;20.03;;;13.00;;
10711;SDS011;5407;51.234;6.804;2024-03-22T06:12:54;19.80;;;13.73;;
10711;SDS011;5407;51.234;6.804;2024-03-22T06:15:21;19.53;;;13.40;;
10711;SDS011;5407;51.234;6.804;2024-03-22T06:17:47;23.17;;;14.30;;
10711;SDS011;5407;51.234;6.804;2024-03-22T06:20:15;18.80;;;14.07;;
10711;SDS011;5407;51.234;6.804;2024-03-22T06:22:43;22.67;;;13.27;;
10711;SDS011;5407;51.234;6.804;2024-03-22T06:25:10;20.37;;;14.17;;
10711;SDS011;5407;51.234;6.804;2024-03-22T06:27:37;19.53;;;12.90;;
10711;SDS011;5407;51.234;6.804;2024-03-22T06:30:07;20.13;;;13.67;;
10711;SDS011;5407;51.234;6.804;2024-03-22T06:32:38;20.60;;;13.67;;
10711;SDS011;5407;51.234;6.804;2024-03-22T06:35:07;17.60;;;13.27;;
10711;SDS011;5407;51.234;6.804;2024-03-22T06:37:39;19.87;;;13.43;;
10711;SDS011;5407;51.234;6.804;2024-03-22T06:43:39;19.87;;;13.10;;
10711;SDS011;5407;51.234;6.804;2024-03-22T06:46:08;18.47;;;13.00;;
10711;SDS011;5407;51.234;6.804;2024-03-22T06:48:35;23.37;;;13.57;;
10711;SDS011;5407;51.234;6.804;2024-03-22T06:51:02;19.60;;;14.03;;
10711;SDS011;5407;51.234;6.804;2024-03-22T06:53:28;24.30;;;14.40;;
10711;SDS011;5407;51.234;6.804;2024-03-22T06:55:56;22.83;;;14.47;;
10711;SDS011;5407;51.234;6.804;2024-03-22T06:58:23;17.07;;;13.77;;
10711;SDS011;5407;51.234;6.804;2024-03-22T07:00:52;22.53;;;13.90;;
10711;SDS011;5407;51.234;6.804;2024-03-22T07:03:18;22.10;;;14.70;;
10711;SDS011;5407;51.234;6.804;2024-03-22T07:05:46;19.80;;;14.53;;
10711;SDS011;5407;51.234;6.804;2024-03-22T07:08:12;22.83;;;15.70;;
10711;SDS011;5407;51.234;6.804;2024-03-22T07:10:39;20.03;;;15.63;;
10711;SDS011;5407;51.234;6.804;2024-03-22T07:13:05;24.57;;;16.00;;
10711;SDS011;5407;51.234;6.804;2024-03-22T07:15:32;23.83;;;16.60;;
10711;SDS011;5407;51.234;6.804;2024-03-22T07:18:00;24.40;;;17.53;;
10711;SDS011;5407;51.234;6.804;2024-03-22T07:20:27;25.03;;;17.33;;
10711;SDS011;5407;51.234;6.804;2024-03-22T07:22:53;23.63;;;17.97;;
10711;SDS011;5407;51.234;6.804;2024-03-22T07:25:20;26.17;;;18.47;;
10711;SDS011;5407;51.234;6.804;2024-03-22T07:27:46;24.53;;;18.07;;
10711;SDS011;5407;51.234;6.804;2024-03-22T07:30:14;25.03;;;19.60;;
10711;SDS011;5407;51.234;6.804;2024-03-22T07:32:40;26.30;;;18.90;;
10711;SDS011;5407;51.234;6.804;2024-03-22T07:35:08;27.07;;;19.00;;
10711;SDS011;5407;51.234;6.804;2024-03-22T07:37:34;27.43;;;18.87;;
10711;SDS011;5407;51.234;6.804;2024-03-22T07:40:01;27.53;;;19.87;;
10711;SDS011;5407;51.234;6.804;2024-03-22T07:42:27;29.53;;;19.50;;
10711;SDS011;5407;51.234;6.804;2024-03-22T07:44:54;26.83;;;19.80;;
10711;SDS011;5407;51.234;6.804;2024-03-22T07:47:20;27.70;;;18.50;;
10711;SDS011;5407;51.234;6.804;2024-03-22T07:49:47;26.43;;;19.00;;
10711;SDS011;5407;51.234;6.804;2024-03-22T07:52:14;27.33;;;20.03;;
10711;SDS011;5407;51.234;6.804;2024-03-22T07:54:42;29.37;;;19.77;;
10711;SDS011;5407;51.234;6.804;2024-03-22T07:57:07;27.33;;;20.00;;
10711;SDS011;5407;51.234;6.804;2024-03-22T07:59:36;26.50;;;20.33;;
10711;SDS011;5407;51.234;6.804;2024-03-22T08:02:02;28.83;;;19.40;;
10711;SDS011;5407;51.234;6.804;2024-03-22T08:04:29;26.67;;;19.83;;
10711;SDS011;5407;51.234;6.804;2024-03-22T08:06:55;29.57;;;20.10;;
10711;SDS011;5407;51.234;6.804;2024-03-22T08:09:24;33.63;;;21.13;;
10711;SDS011;5407;51.234;6.804;2024-03-22T08:11:50;29.53;;;20.30;;
10711;SDS011;5407;51.234;6.804;2024-03-22T08:14:17;31.50;;;20.60;;
10711;SDS011;5407;51.234;6.804;2024-03-22T08:16:43;27.10;;;19.87;;
10711;SDS011;5407;51.234;6.804;2024-03-22T08:19:10;27.77;;;20.00;;
10711;SDS011;5407;51.234;6.804;2024-03-22T08:21:36;27.23;;;20.07;;
10711;SDS011;5407;51.234;6.804;2024-03-22T08:24:03;28.17;;;19.67;;
10711;SDS011;5407;51.234;6.804;2024-03-22T08:26:31;30.70;;;20.53;;
10711;SDS011;5407;51.234;6.804;2024-03-22T08:28:58;28.00;;;19.57;;
10711;SDS011;5407;51.234;6.804;2024-03-22T08:31:24;25.73;;;18.87;;
10711;SDS011;5407;51.234;6.804;2024-03-22T08:33:53;33.13;;;19.00;;
10711;SDS011;5407;51.234;6.804;2024-03-22T08:36:21;27.27;;;18.77;;
10711;SDS011;5407;51.234;6.804;2024-03-22T08:38:48;27.00;;;19.47;;
10711;SDS011;5407;51.234;6.804;2024-03-22T08:41:14;25.33;;;17.93;;
10711;SDS011;5407;51.234;6.804;2024-03-22T08:43:42;23.07;;;18.53;;
10711;SDS011;5407;51.234;6.804;2024-03-22T08:46:09;24.70;;;18.17;;
10711;SDS011;5407;51.234;6.804;2024-03-22T08:48:36;24.83;;;17.50;;
10711;SDS011;5407;51.234;6.804;2024-03-22T08:51:02;27.27;;;18.37;;
10711;SDS011;5407;51.234;6.804;2024-03-22T08:53:30;28.80;;;18.40;;
10711;SDS011;5407;51.234;6.804;2024-03-22T08:55:56;25.90;;;17.73;;
10711;SDS011;5407;51.234;6.804;2024-03-22T08:58:23;22.93;;;17.13;;
10711;SDS011;5407;51.234;6.804;2024-03-22T09:00:51;24.77;;;17.20;;
10711;SDS011;5407;51.234;6.804;2024-03-22T09:03:17;30.83;;;18.33;;
10711;SDS011;5407;51.234;6.804;2024-03-22T09:05:43;30.20;;;16.83;;
10711;SDS011;5407;51.234;6.804;2024-03-22T09:08:10;27.43;;;16.10;;
10711;SDS011;5407;51.234;6.804;2024-03-22T09:10:36;20.40;;;15.20;;
10711;SDS011;5407;51.234;6.804;2024-03-22T09:13:04;20.17;;;15.03;;
10711;SDS011;5407;51.234;6.804;2024-03-22T09:15:29;22.77;;;15.20;;
10711;SDS011;5407;51.234;6.804;2024-03-22T09:17:58;19.77;;;15.37;;
10711;SDS011;5407;51.234;6.804;2024-03-22T09:20:24;22.23;;;15.85;;
10711;SDS011;5407;51.234;6.804;2024-03-22T09:22:51;23.37;;;16.07;;
10711;SDS011;5407;51.234;6.804;2024-03-22T09:25:17;22.17;;;14.87;;
10711;SDS011;5407;51.234;6.804;2024-03-22T09:27:44;19.60;;;14.90;;
10711;SDS011;5407;51.234;6.804;2024-03-22T09:30:10;20.05;;;15.48;;
10711;SDS011;5407;51.234;6.804;2024-03-22T09:32:37;18.53;;;14.17;;
10711;SDS011;5407;51.234;6.804;2024-03-22T09:35:05;17.90;;;14.20;;
10711;SDS011;5407;51.234;6.804;2024-03-22T09:37:33;19.38;;;14.95;;
10711;SDS011;5407;51.234;6.804;2024-03-22T09:39:58;19.13;;;14.10;;
10711;SDS011;5407;51.234;6.804;2024-03-22T09:42:32;22.63;;;14.95;;
10711;SDS011;5407;51.234;6.804;2024-03-22T09:44:58;23.83;;;14.88;;
10711;SDS011;5407;51.234;6.804;2024-03-22T09:47:27;17.27;;;14.35;;
10711;SDS011;5407;51.234;6.804;2024-03-22T09:49:53;19.75;;;15.52;;
10711;SDS011;5407;51.234;6.804;2024-03-22T09:52:23;17.33;;;13.82;;
10711;SDS011;5407;51.234;6.804;2024-03-22T09:54:49;18.20;;;14.57;;
10711;SDS011;5407;51.234;6.804;2024-03-22T09:57:17;16.03;;;12.40;;
10711;SDS011;5407;51.234;6.804;2024-03-22T09:59:44;14.65;;;10.90;;
10711;SDS011;5407;51.234;6.804;2024-03-22T10:02:16;16.10;;;10.73;;
10711;SDS011;5407;51.234;6.804;2024-03-22T10:04:43;13.52;;;11.27;;
10711;SDS011;5407;51.234;6.804;2024-03-22T10:07:10;14.82;;;11.27;;
10711;SDS011;5407;51.234;6.804;2024-03-22T10:09:37;11.68;;;9.75;;
10711;SDS011;5407;51.234;6.804;2024-03-22T10:12:04;14.55;;;8.73;;
10711;SDS011;5407;51.234;6.804;2024-03-22T10:14:30;15.13;;;9.53;;
10711;SDS011;5407;51.234;6.804;2024-03-22T10:16:58;14.30;;;8.93;;
10711;SDS011;5407;51.234;6.804;2024-03-22T10:19:25;10.80;;;9.07;;
10711;SDS011;5407;51.234;6.804;2024-03-22T10:21:59;23.33;;;10.63;;
10711;SDS011;5407;51.234;6.804;2024-03-22T10:24:26;17.70;;;11.30;;
10711;SDS011;5407;51.234;6.804;2024-03-22T10:26:53;15.50;;;10.93;;
10711;SDS011;5407;51.234;6.804;2024-03-22T10:29:20;14.57;;;11.17;;
10711;SDS011;5407;51.234;6.804;2024-03-22T10:31:47;26.70;;;13.67;;
10711;SDS011;5407;51.234;6.804;2024-03-22T10:34:14;18.43;;;13.43;;
10711;SDS011;5407;51.234;6.804;2024-03-22T10:36:42;23.63;;;12.57;;
10711;SDS011;5407;51.234;6.804;2024-03-22T10:39:10;20.50;;;12.73;;
10711;SDS011;5407;51.234;6.804;2024-03-22T10:41:38;21.13;;;12.53;;
10711;SDS011;5407;51.234;6.804;2024-03-22T10:44:11;14.63;;;12.07;;
10711;SDS011;5407;51.234;6.804;2024-03-22T10:46:40;18.87;;;11.90;;
10711;SDS011;5407;51.234;6.804;2024-03-22T10:49:12;19.23;;;12.50;;
10711;SDS011;5407;51.234;6.804;2024-03-22T10:51:41;17.50;;;12.33;;
10711;SDS011;5407;51.234;6.804;2024-03-22T10:54:12;16.10;;;12.93;;
10711;SDS011;5407;51.234;6.804;2024-03-22T10:56:43;15.15;;;12.93;;
10711;SDS011;5407;51.234;6.804;2024-03-22T10:59:14;22.88;;;13.05;;
10711;SDS011;5407;51.234;6.804;2024-03-22T11:01:45;19.95;;;12.68;;
10711;SDS011;5407;51.234;6.804;2024-03-22T11:04:14;17.83;;;12.43;;
10711;SDS011;5407;51.234;6.804;2024-03-22T11:06:47;15.13;;;12.13;;
10711;SDS011;5407;51.234;6.804;2024-03-22T11:09:18;14.43;;;11.83;;
10711;SDS011;5407;51.234;6.804;2024-03-22T11:11:47;19.48;;;13.10;;
10711;SDS011;5407;51.234;6.804;2024-03-22T11:14:15;17.15;;;13.05;;
10711;SDS011;5407;51.234;6.804;2024-03-22T11:16:42;17.23;;;13.05;;
10711;SDS011;5407;51.234;6.804;2024-03-22T11:19:09;16.65;;;12.68;;
10711;SDS011;5407;51.234;6.804;2024-03-22T11:21:37;22.33;;;12.97;;
10711;SDS011;5407;51.234;6.804;2024-03-22T11:24:03;15.70;;;12.50;;
10711;SDS011;5407;51.234;6.804;2024-03-22T11:26:31;17.25;;;12.95;;
10711;SDS011;5407;51.234;6.804;2024-03-22T11:28:57;19.38;;;12.75;;
10711;SDS011;5407;51.234;6.804;2024-03-22T11:31:26;16.55;;;12.85;;
10711;SDS011;5407;51.234;6.804;2024-03-22T11:33:53;14.75;;;12.73;;
10711;SDS011;5407;51.234;6.804;2024-03-22T11:36:20;15.68;;;12.27;;
10711;SDS011;5407;51.234;6.804;2024-03-22T11:38:47;17.52;;;12.52;;
10711;SDS011;5407;51.234;6.804;2024-03-22T11:41:15;17.38;;;13.00;;
10711;SDS011;5407;51.234;6.804;2024-03-22T11:43:43;17.40;;;13.57;;
10711;SDS011;5407;51.234;6.804;2024-03-22T11:46:13;20.25;;;13.43;;
10711;SDS011;5407;51.234;6.804;2024-03-22T11:48:41;20.23;;;14.38;;
10711;SDS011;5407;51.234;6.804;2024-03-22T11:51:09;19.45;;;13.32;;
10711;SDS011;5407;51.234;6.804;2024-03-22T11:53:35;18.00;;;12.83;;
10711;SDS011;5407;51.234;6.804;2024-03-22T11:56:04;17.10;;;12.67;;
10711;SDS011;5407;51.234;6.804;2024-03-22T11:58:31;20.10;;;13.00;;
10711;SDS011;5407;51.234;6.804;2024-03-22T12:00:58;17.38;;;13.25;;
10711;SDS011;5407;51.234;6.804;2024-03-22T12:03:24;24.38;;;12.80;;
10711;SDS011;5407;51.234;6.804;2024-03-22T12:05:53;17.85;;;12.63;;
10711;SDS011;5407;51.234;6.804;2024-03-22T12:08:20;19.50;;;13.60;;
10711;SDS011;5407;51.234;6.804;2024-03-22T12:10:47;17.67;;;12.63;;
10711;SDS011;5407;51.234;6.804;2024-03-22T12:13:13;18.02;;;13.95;;
10711;SDS011;5407;51.234;6.804;2024-03-22T12:15:40;18.85;;;14.35;;
10711;SDS011;5407;51.234;6.804;2024-03-22T12:18:06;20.08;;;13.38;;
10711;SDS011;5407;51.234;6.804;2024-03-22T12:20:33;19.10;;;14.70;;
10711;SDS011;5407;51.234;6.804;2024-03-22T12:23:00;21.80;;;14.57;;
10711;SDS011;5407;51.234;6.804;2024-03-22T12:25:28;23.90;;;15.20;;
10711;SDS011;5407;51.234;6.804;2024-03-22T12:27:54;19.87;;;15.03;;
10711;SDS011;5407;51.234;6.804;2024-03-22T12:30:21;19.67;;;13.47;;
10711;SDS011;5407;51.234;6.804;2024-03-22T12:32:47;17.35;;;14.38;;
10711;SDS011;5407;51.234;6.804;2024-03-22T12:35:14;20.02;;;14.40;;
10711;SDS011;5407;51.234;6.804;2024-03-22T12:37:40;18.15;;;13.52;;
10711;SDS011;5407;51.234;6.804;2024-03-22T12:40:09;18.77;;;13.20;;
10711;SDS011;5407;51.234;6.804;2024-03-22T12:42:37;19.10;;;12.55;;
10711;SDS011;5407;51.234;6.804;2024-03-22T12:45:04;24.80;;;12.93;;
10711;SDS011;5407;51.234;6.804;2024-03-22T12:47:31;13.93;;;10.57;;
10711;SDS011;5407;51.234;6.804;2024-03-22T12:49:58;14.48;;;10.50;;
10711;SDS011;5407;51.234;6.804;2024-03-22T12:52:24;13.40;;;9.93;;
10711;SDS011;5407;51.234;6.804;2024-03-22T12:54:51;15.07;;;10.35;;
10711;SDS011;5407;51.234;6.804;2024-03-22T12:57:19;11.95;;;9.82;;
10711;SDS011;5407;51.234;6.804;2024-03-22T12:59:45;14.07;;;9.37;;
10711;SDS011;5407;51.234;6.804;2024-03-22T13:02:11;14.50;;;10.52;;
10711;SDS011;5407;51.234;6.804;2024-03-22T13:04:38;15.48;;;10.18;;
10711;SDS011;5407;51.234;6.804;2024-03-22T13:07:05;12.43;;;10.83;;
10711;SDS011;5407;51.234;6.804;2024-03-22T13:09:31;13.25;;;10.38;;
10711;SDS011;5407;51.234;6.804;2024-03-22T13:11:58;12.82;;;10.43;;
10711;SDS011;5407;51.234;6.804;2024-03-22T13:14:25;16.63;;;10.70;;
10711;SDS011;5407;51.234;6.804;2024-03-22T13:16:53;19.83;;;10.90;;
10711;SDS011;5407;51.234;6.804;2024-03-22T13:19:18;13.13;;;10.37;;
10711;SDS011;5407;51.234;6.804;2024-03-22T13:21:45;16.05;;;10.38;;
10711;SDS011;5407;51.234;6.804;2024-03-22T13:24:13;11.73;;;9.63;;
10711;SDS011;5407;51.234;6.804;2024-03-22T13:26:40;11.50;;;8.77;;
10711;SDS011;5407;51.234;6.804;2024-03-22T13:29:06;10.53;;;8.60;;
10711;SDS011;5407;51.234;6.804;2024-03-22T13:31:35;12.63;;;9.10;;
10711;SDS011;5407;51.234;6.804;2024-03-22T13:34:01;13.33;;;9.67;;
10711;SDS011;5407;51.234;6.804;2024-03-22T13:36:29;12.70;;;9.38;;
10711;SDS011;5407;51.234;6.804;2024-03-22T13:38:57;13.40;;;9.18;;
10711;SDS011;5407;51.234;6.804;2024-03-22T13:41:25;12.60;;;9.07;;
10711;SDS011;5407;51.234;6.804;2024-03-22T13:43:50;10.75;;;9.38;;
10711;SDS011;5407;51.234;6.804;2024-03-22T13:46:17;13.05;;;9.57;;
10711;SDS011;5407;51.234;6.804;2024-03-22T13:48:45;16.98;;;10.77;;
10711;SDS011;5407;51.234;6.804;2024-03-22T13:51:13;12.38;;;10.93;;
10711;SDS011;5407;51.234;6.804;2024-03-22T13:53:39;17.50;;;11.57;;
10711;SDS011;5407;51.234;6.804;2024-03-22T13:56:05;12.18;;;10.88;;
10711;SDS011;5407;51.234;6.804;2024-03-22T13:58:31;14.90;;;10.90;;
10711;SDS011;5407;51.234;6.804;2024-03-22T14:00:59;20.87;;;10.77;;
10711;SDS011;5407;51.234;6.804;2024-03-22T14:03:25;12.57;;;10.23;;
10711;SDS011;5407;51.234;6.804;2024-03-22T14:05:54;21.50;;;11.63;;
10711;SDS011;5407;51.234;6.804;2024-03-22T14:08:20;14.55;;;10.80;;
10711;SDS011;5407;51.234;6.804;2024-03-22T14:10:47;15.60;;;10.90;;
10711;SDS011;5407;51.234;6.804;2024-03-22T14:13:13;14.30;;;10.93;;
10711;SDS011;5407;51.234;6.804;2024-03-22T14:15:40;15.33;;;11.03;;
10711;SDS011;5407;51.234;6.804;2024-03-22T14:18:06;12.25;;;10.55;;
10711;SDS011;5407;51.234;6.804;2024-03-22T14:20:33;18.47;;;11.73;;
10711;SDS011;5407;51.234;6.804;2024-03-22T14:23:00;18.17;;;11.73;;
10711;SDS011;5407;51.234;6.804;2024-03-22T14:25:29;23.70;;;15.57;;
10711;SDS011;5407;51.234;6.804;2024-03-22T14:27:55;16.00;;;13.37;;
10711;SDS011;5407;51.234;6.804;2024-03-22T14:30:22;18.07;;;13.13;;
10711;SDS011;5407;51.234;6.804;2024-03-22T14:32:48;21.98;;;14.02;;
10711;SDS011;5407;51.234;6.804;2024-03-22T14:35:17;19.10;;;12.73;;
10711;SDS011;5407;51.234;6.804;2024-03-22T14:37:43;15.57;;;10.98;;
10711;SDS011;5407;51.234;6.804;2024-03-22T14:40:12;12.77;;;10.37;;
10711;SDS011;5407;51.234;6.804;2024-03-22T14:42:39;12.80;;;9.67;;
10711;SDS011;5407;51.234;6.804;2024-03-22T14:45:08;12.67;;;10.53;;
10711;SDS011;5407;51.234;6.804;2024-03-22T14:47:35;15.23;;;10.77;;
10711;SDS011;5407;51.234;6.804;2024-03-22T14:50:02;15.20;;;10.93;;
10711;SDS011;5407;51.234;6.804;2024-03-22T14:52:28;13.07;;;10.40;;
10711;SDS011;5407;51.234;6.804;2024-03-22T14:54:55;13.13;;;10.30;;
10711;SDS011;5407;51.234;6.804;2024-03-22T14:57:23;13.37;;;10.13;;